createdAt,value
2023-01-29T00:00:17.731Z,59.92
2023-01-29T00:05:27.780Z,59.05
2023-01-29T00:10:29.541Z,59.26
2023-01-29T00:15:31.020Z,58.89
2023-01-29T00:20:32.500Z,59.33
2023-01-29T00:25:33.967Z,58.97
2023-01-29T00:30:36.281Z,60.39
2023-01-29T00:35:39.572Z,59.53
2023-01-29T00:41:00.134Z,59.06
2023-01-29T00:46:01.766Z,58.45
2023-01-29T00:51:03.293Z,59.14
2023-01-29T00:56:04.912Z,59.34
2023-01-29T01:01:06.419Z,58.61
2023-01-29T01:06:09.488Z,58.63
2023-01-29T01:11:10.955Z,58.59
2023-01-29T01:16:13.945Z,59.20
2023-01-29T01:21:15.427Z,60.28
2023-01-29T01:26:16.901Z,59.84
2023-01-29T01:31:18.892Z,59.70
2023-01-29T01:36:20.472Z,59.63
2023-01-29T01:41:22.828Z,58.52
2023-01-29T01:46:25.277Z,61.07
2023-01-29T01:51:26.739Z,60.84
2023-01-29T01:56:40.858Z,63.14
2023-01-29T02:01:43.228Z,62.04
2023-01-29T02:07:02.878Z,63.47
2023-01-29T02:12:09.115Z,62.83
2023-01-29T02:17:12.555Z,63.20
2023-01-29T02:22:33.526Z,62.39
2023-01-29T02:28:12.547Z,61.91
2023-01-29T02:33:35.546Z,61.63
2023-01-29T02:38:45.504Z,61.95
2023-01-29T02:43:56.025Z,60.49
2023-01-29T02:49:04.536Z,59.40
2023-01-29T02:54:21.818Z,60.63
2023-01-29T02:59:25.838Z,59.48
2023-01-29T03:04:31.939Z,60.50
2023-01-29T03:09:34.752Z,60.80
2023-01-29T03:14:56.383Z,60.68
2023-01-29T03:19:57.835Z,61.23
2023-01-29T03:25:17.585Z,61.71
2023-01-29T03:30:37.801Z,61.24
2023-01-29T03:35:43.202Z,61.19
2023-01-29T03:41:08.987Z,63.50
2023-01-29T03:46:32.324Z,64.13
2023-01-29T03:51:40.979Z,62.64
2023-01-29T03:57:05.448Z,61.89
2023-01-29T04:02:15.507Z,62.99
2023-01-29T04:07:23.700Z,62.40
2023-01-29T04:12:28.241Z,62.67
2023-01-29T04:17:34.108Z,64.95
2023-01-29T04:22:37.138Z,63.51
2023-01-29T04:27:57.945Z,63.28
2023-01-29T04:33:33.441Z,64.61
2023-01-29T04:38:52.214Z,64.21
2023-01-29T04:44:01.773Z,66.06
2023-01-29T04:49:13.475Z,66.88
2023-01-29T04:54:23.678Z,66.39
2023-01-29T04:59:37.153Z,66.46
2023-01-29T05:04:38.816Z,66.05
2023-01-29T05:09:40.286Z,65.03
2023-01-29T05:14:42.199Z,64.61
2023-01-29T05:19:43.689Z,64.01
2023-01-29T05:24:46.505Z,63.61
2023-01-29T05:29:48.041Z,63.92
2023-01-29T05:34:49.554Z,64.32
2023-01-29T05:39:51.024Z,63.74
2023-01-29T05:44:52.584Z,63.93
2023-01-29T05:49:54.101Z,63.90
2023-01-29T05:54:55.960Z,63.04
2023-01-29T05:59:57.448Z,63.42
2023-01-29T06:04:58.910Z,63.82
2023-01-29T06:10:00.371Z,64.66
2023-01-29T06:15:01.836Z,64.78
2023-01-29T06:20:04.022Z,65.88
2023-01-29T06:25:06.050Z,64.92
2023-01-29T06:30:09.645Z,64.96
2023-01-29T06:35:11.151Z,64.91
2023-01-29T06:40:12.844Z,65.55
2023-01-29T06:45:14.372Z,66.10
2023-01-29T06:50:16.104Z,66.37
2023-01-29T06:55:17.784Z,65.93
2023-01-29T07:00:20.396Z,66.81
2023-01-29T07:05:22.085Z,69.05
2023-01-29T07:10:23.622Z,67.91
2023-01-29T07:15:25.213Z,65.75
2023-01-29T07:20:27.554Z,65.31
2023-01-29T07:25:30.324Z,66.28
2023-01-29T07:30:31.870Z,67.13
2023-01-29T07:35:36.180Z,68.63
2023-01-29T07:40:37.663Z,65.60
2023-01-29T07:45:39.467Z,65.22
2023-01-29T07:50:40.984Z,63.06
2023-01-29T07:55:44.214Z,62.04
2023-01-29T08:00:45.634Z,60.78
2023-01-29T08:05:47.174Z,63.35
2023-01-29T08:10:48.628Z,63.24
2023-01-29T08:15:50.102Z,62.86
2023-01-29T08:20:52.840Z,61.88
2023-01-29T08:25:54.444Z,60.92
2023-01-29T08:30:56.040Z,63.66
2023-01-29T08:35:57.568Z,64.74
2023-01-29T08:40:59.031Z,65.78
2023-01-29T08:46:00.533Z,65.98
2023-01-29T08:51:02.490Z,64.12
2023-01-29T08:56:04.092Z,64.00
2023-01-29T09:01:06.980Z,63.46
2023-01-29T09:06:09.356Z,62.28
2023-01-29T09:11:11.162Z,62.32
2023-01-29T09:16:12.683Z,60.24
2023-01-29T09:21:14.137Z,62.35
2023-01-29T09:26:15.611Z,60.97
2023-01-29T09:31:17.231Z,60.44
2023-01-29T09:36:18.959Z,59.51
2023-01-29T09:41:39.060Z,60.47
2023-01-29T09:46:44.284Z,62.39
2023-01-29T09:51:51.489Z,60.63
2023-01-29T09:56:55.064Z,59.48
2023-01-29T10:02:18.476Z,61.07
2023-01-29T10:07:31.913Z,63.27
2023-01-29T10:13:05.574Z,62.10
2023-01-29T10:18:31.560Z,62.52
2023-01-29T10:23:37.694Z,63.11
2023-01-29T10:28:46.394Z,64.76
2023-01-29T10:34:02.182Z,64.33
2023-01-29T10:39:04.331Z,64.71
2023-01-29T10:44:20.990Z,63.70
2023-01-29T10:49:41.938Z,63.79
2023-01-29T10:55:22.876Z,63.73
2023-01-29T11:00:28.559Z,65.02
2023-01-29T11:05:32.914Z,63.80
2023-01-29T11:10:37.804Z,63.66
2023-01-29T11:15:39.291Z,64.13
2023-01-29T11:20:41.972Z,72.12
2023-01-29T11:25:45.789Z,67.30
2023-01-29T11:30:47.478Z,66.02
2023-01-29T11:35:48.953Z,65.73
2023-01-29T11:40:50.446Z,61.84
2023-01-29T11:45:54.189Z,62.40
2023-01-29T11:50:57.420Z,60.17
2023-01-29T11:55:59.111Z,60.97
2023-01-29T12:01:01.124Z,61.07
2023-01-29T12:06:07.480Z,58.09
2023-01-29T12:11:11.021Z,60.00
2023-01-29T12:16:17.199Z,58.22
2023-01-29T12:21:23.069Z,63.10
2023-01-29T12:26:44.657Z,66.70
2023-01-29T12:31:55.385Z,67.66
2023-01-29T12:37:09.739Z,68.32
2023-01-29T12:42:16.453Z,65.91
2023-01-29T12:47:33.416Z,66.68
2023-01-29T12:53:02.034Z,66.18
2023-01-29T12:58:04.772Z,65.92
2023-01-29T13:03:27.984Z,67.44
2023-01-29T13:08:37.551Z,67.38
2023-01-29T13:13:38.793Z,67.63
2023-01-29T13:18:42.325Z,67.61
2023-01-29T13:23:54.529Z,68.15
2023-01-29T13:28:55.995Z,67.16
2023-01-29T13:34:08.217Z,67.41
2023-01-29T13:39:17.373Z,66.39
2023-01-29T13:44:26.957Z,67.41
2023-01-29T13:49:35.598Z,68.81
2023-01-29T13:54:37.115Z,68.19
2023-01-29T13:59:53.050Z,66.39
2023-01-29T14:05:12.937Z,65.13
2023-01-29T14:10:15.586Z,62.94
2023-01-29T14:15:22.402Z,62.38
2023-01-29T14:20:27.724Z,61.71
2023-01-29T14:25:34.765Z,60.59
2023-01-29T14:30:36.374Z,60.29
2023-01-29T14:35:37.876Z,59.65
2023-01-29T14:40:41.169Z,60.77
2023-01-29T14:45:43.925Z,61.23
2023-01-29T14:50:49.532Z,60.49
2023-01-29T14:56:03.181Z,60.16
2023-01-29T15:01:07.106Z,60.53
2023-01-29T15:06:09.102Z,59.99
2023-01-29T15:11:35.857Z,62.59
2023-01-29T15:16:42.441Z,62.11
2023-01-29T15:22:03.331Z,61.39
2023-01-29T15:27:06.489Z,61.02
2023-01-29T15:32:08.167Z,60.60
2023-01-29T15:37:27.672Z,61.50
2023-01-29T15:42:29.687Z,60.33
2023-01-29T15:47:31.438Z,60.18
2023-01-29T15:52:35.092Z,59.41
2023-01-29T15:57:37.768Z,62.09
2023-01-29T16:02:40.460Z,60.87
2023-01-29T16:07:42.231Z,58.02
2023-01-29T16:12:43.703Z,56.96
2023-01-29T16:17:45.168Z,56.84
2023-01-29T16:22:46.642Z,55.42
2023-01-29T16:27:48.124Z,57.84
2023-01-29T16:32:49.583Z,54.90
2023-01-29T16:37:51.067Z,55.50
2023-01-29T16:43:28.393Z,56.55
2023-01-29T16:48:33.966Z,58.03
2023-01-29T16:53:35.440Z,57.67
2023-01-29T16:58:37.082Z,58.47
2023-01-29T17:03:38.602Z,59.59
2023-01-29T17:08:42.835Z,61.50
2023-01-29T17:13:44.391Z,61.34
2023-01-29T17:18:45.883Z,63.10
2023-01-29T17:23:47.357Z,62.01
2023-01-29T17:28:51.712Z,60.92
2023-01-29T17:33:53.191Z,59.66
2023-01-29T17:38:54.682Z,61.33
2023-01-29T17:43:56.145Z,59.02
2023-01-29T17:48:57.608Z,61.74
2023-01-29T17:53:59.072Z,62.11
2023-01-29T17:59:00.912Z,61.72
2023-01-29T18:04:02.519Z,63.19
2023-01-29T18:09:04.062Z,62.74
2023-01-29T18:14:10.242Z,65.76
2023-01-29T18:19:16.625Z,63.39
2023-01-29T18:24:20.286Z,64.00
2023-01-29T18:29:21.769Z,62.89
2023-01-29T18:34:23.275Z,62.80
2023-01-29T18:39:25.188Z,61.17
2023-01-29T18:44:29.620Z,63.60
2023-01-29T18:49:31.593Z,62.03
2023-01-29T18:54:34.118Z,62.67
2023-01-29T18:59:35.594Z,61.62
2023-01-29T19:04:37.325Z,63.53
2023-01-29T19:09:40.367Z,62.42
2023-01-29T19:14:41.963Z,63.81
2023-01-29T19:19:43.504Z,61.61
2023-01-29T19:24:45.771Z,63.21
2023-01-29T19:29:47.265Z,62.95
2023-01-29T19:34:48.730Z,63.22
2023-01-29T19:39:50.232Z,63.08
2023-01-29T19:44:53.301Z,62.27
2023-01-29T19:49:54.778Z,62.93
2023-01-29T19:54:56.244Z,63.47
2023-01-29T19:59:58.181Z,64.60
2023-01-29T20:05:01.171Z,65.56
2023-01-29T20:10:02.699Z,65.88
2023-01-29T20:15:05.387Z,63.97
2023-01-29T20:20:07.164Z,64.15
2023-01-29T20:25:09.023Z,66.35
2023-01-29T20:30:11.050Z,65.03
2023-01-29T20:35:12.514Z,66.03
2023-01-29T20:40:15.418Z,65.80
2023-01-29T20:45:17.063Z,68.04
2023-01-29T20:50:19.867Z,67.17
2023-01-29T20:55:21.409Z,65.83
2023-01-29T21:00:23.058Z,65.53
2023-01-29T21:05:24.620Z,67.62
2023-01-29T21:10:26.095Z,67.79
2023-01-29T21:15:27.558Z,68.17
2023-01-29T21:20:29.032Z,65.71
2023-01-29T21:25:30.546Z,66.16
2023-01-29T21:30:32.210Z,65.72
2023-01-29T21:35:33.862Z,67.02
2023-01-29T21:40:35.324Z,65.79
2023-01-29T21:45:37.329Z,65.53
2023-01-29T21:50:38.804Z,65.39
2023-01-29T21:55:40.273Z,65.77
2023-01-29T22:00:41.740Z,65.11
2023-01-29T22:05:43.203Z,68.99
2023-01-29T22:10:44.674Z,67.85
2023-01-29T22:15:46.342Z,66.06
2023-01-29T22:20:52.999Z,66.84
2023-01-29T22:25:54.722Z,67.38
2023-01-29T22:31:01.407Z,66.81
2023-01-29T22:36:02.923Z,68.41
2023-01-29T22:41:05.404Z,68.39
2023-01-29T22:46:10.502Z,67.88
2023-01-29T22:51:12.915Z,67.00
2023-01-29T22:56:14.494Z,64.94
2023-01-29T23:01:21.260Z,65.96
2023-01-29T23:06:22.824Z,66.74
2023-01-29T23:11:24.326Z,67.19
2023-01-29T23:16:27.992Z,66.33
2023-01-29T23:21:29.598Z,66.72
2023-01-29T23:26:49.399Z,66.77
2023-01-29T23:31:50.902Z,69.25
2023-01-29T23:36:52.380Z,70.41
2023-01-29T23:41:53.848Z,68.76
2023-01-29T23:46:55.391Z,70.07
2023-01-29T23:51:56.897Z,69.96
2023-01-29T23:56:58.369Z,70.82
